createdAt,value
2022-08-22T00:00:02.267Z,1012.3
2022-08-22T00:01:02.697Z,1012.2
2022-08-22T00:02:02.797Z,1012.2
2022-08-22T00:03:17.145Z,1013.1
2022-08-22T00:04:02.163Z,1012.2
2022-08-22T00:05:02.147Z,1012.2
2022-08-22T00:06:01.988Z,1012.2
2022-08-22T00:07:01.937Z,1012.2
2022-08-22T00:08:02.901Z,1012.1
2022-08-22T00:09:02.735Z,1012.2
2022-08-22T00:10:02.754Z,1012.1
2022-08-22T00:11:02.684Z,1012.1
2022-08-22T00:12:02.527Z,1012.2
2022-08-22T00:13:02.457Z,1012.1
2022-08-22T00:14:02.648Z,1012.2
2022-08-22T00:15:02.603Z,1012.2
2022-08-22T00:16:02.301Z,1012.1
2022-08-22T00:17:02.149Z,1012.1
2022-08-22T00:18:06.194Z,1012.1
2022-08-22T00:19:02.003Z,1012.1
2022-08-22T00:20:01.962Z,1012.1
2022-08-22T00:21:01.794Z,1012.1
2022-08-22T00:22:02.847Z,1012.1
2022-08-22T00:23:02.672Z,1012.2
2022-08-22T00:24:02.635Z,1012.1
2022-08-22T00:25:02.596Z,1012.1
2022-08-22T00:26:02.436Z,1012.2
2022-08-22T00:27:02.360Z,1012.2
2022-08-22T00:28:02.309Z,1012.2
2022-08-22T00:29:02.147Z,1012.2
2022-08-22T00:30:03.770Z,1012.2
2022-08-22T00:31:02.497Z,1012.2
2022-08-22T00:32:02.325Z,1012.2
2022-08-22T00:33:02.343Z,1012.2
2022-08-22T00:34:02.279Z,1012.2
2022-08-22T00:35:02.063Z,1012.2
2022-08-22T00:36:02.013Z,1012.2
2022-08-22T00:37:01.840Z,1012.2
2022-08-22T00:38:02.843Z,1012.2
2022-08-22T00:39:02.685Z,1012.1
2022-08-22T00:40:04.130Z,1012.1
2022-08-22T00:41:02.015Z,1012.2
2022-08-22T00:42:01.976Z,1012.2
2022-08-22T00:43:01.782Z,1012.2
2022-08-22T00:44:02.805Z,1012.2
2022-08-22T00:45:02.675Z,1012.1
2022-08-22T00:46:01.833Z,1012.2
2022-08-22T00:47:02.883Z,1012.2
2022-08-22T00:48:04.393Z,1012.2
2022-08-22T00:49:02.200Z,1012.2
2022-08-22T00:50:02.220Z,1012.2
2022-08-22T00:51:02.089Z,1012.1
2022-08-22T00:52:02.008Z,1012.2
2022-08-22T00:53:01.858Z,1012.2
2022-08-22T00:54:07.024Z,1012.1
2022-08-22T00:55:02.492Z,1012.1
2022-08-22T00:56:02.323Z,1012.2
2022-08-22T00:57:02.312Z,1012.3
2022-08-22T00:58:02.152Z,1012.3
2022-08-22T00:59:24.543Z,1012.2
2022-08-22T01:00:02.477Z,1012.3
2022-08-22T01:01:02.790Z,1012.3
2022-08-22T01:02:02.755Z,1012.3
2022-08-22T01:03:02.588Z,1012.2
2022-08-22T01:04:02.557Z,1012.2
2022-08-22T01:05:02.511Z,1012.2
2022-08-22T01:06:02.346Z,1012.2
2022-08-22T01:07:02.284Z,1012.2
2022-08-22T01:08:02.111Z,1012.2
2022-08-22T01:09:02.066Z,1012.2
2022-08-22T01:10:01.870Z,1012.2
2022-08-22T01:11:02.805Z,1012.2
2022-08-22T01:12:02.628Z,1012.2
2022-08-22T01:13:02.628Z,1012.2
2022-08-22T01:14:02.508Z,1012.1
2022-08-22T01:15:02.304Z,1012.2
2022-08-22T01:16:02.684Z,1012.3
2022-08-22T01:17:02.674Z,1012.3
2022-08-22T01:18:02.484Z,1012.3
2022-08-22T01:19:02.479Z,1012.2
2022-08-22T01:20:02.403Z,1012.2
2022-08-22T01:21:02.221Z,1012.2
2022-08-22T01:22:02.166Z,1012.2
2022-08-22T01:23:01.957Z,1012.2
2022-08-22T01:24:01.938Z,1012.3
2022-08-22T01:25:05.055Z,1012.2
2022-08-22T01:26:03.160Z,1012.3
2022-08-22T01:27:02.554Z,1012.2
2022-08-22T01:28:03.054Z,1012.3
2022-08-22T01:29:05.723Z,1012.2
2022-08-22T01:30:03.225Z,1012.2
2022-08-22T01:31:02.515Z,1012.2
2022-08-22T01:32:02.528Z,1012.2
2022-08-22T01:33:02.455Z,1012.2
2022-08-22T01:34:02.283Z,1012.2
2022-08-22T01:35:02.770Z,1012.2
2022-08-22T01:36:02.590Z,1012.2
2022-08-22T01:37:02.591Z,1012.2
2022-08-22T01:38:02.516Z,1012.3
2022-08-22T01:39:02.337Z,1012.3
2022-08-22T01:40:02.564Z,1012.2
2022-08-22T01:41:03.049Z,1012.3
2022-08-22T01:42:01.862Z,1012.3
2022-08-22T01:43:01.896Z,1012.3
2022-08-22T01:44:02.799Z,1012.3
2022-08-22T01:45:02.824Z,1012.3
2022-08-22T01:46:01.791Z,1012.3
2022-08-22T01:47:02.769Z,1012.3
2022-08-22T01:48:02.584Z,1012.3
2022-08-22T01:49:02.566Z,1012.3
2022-08-22T01:50:02.584Z,1012.2
2022-08-22T01:51:02.407Z,1012.2
2022-08-22T01:52:02.357Z,1012.2
2022-08-22T01:53:02.303Z,1012.2
2022-08-22T01:54:02.084Z,1012.2
2022-08-22T01:55:02.027Z,1012.2
2022-08-22T01:56:01.826Z,1012.2
2022-08-22T01:57:02.800Z,1012.2
2022-08-22T01:58:02.669Z,1012.2
2022-08-22T01:59:02.557Z,1012.2
2022-08-22T02:00:01.852Z,1012.2
2022-08-22T02:01:02.835Z,1012.2
2022-08-22T02:02:02.772Z,1012.3
2022-08-22T02:03:02.575Z,1012.2
2022-08-22T02:04:02.525Z,1012.2
2022-08-22T02:05:03.126Z,1012.2
2022-08-22T02:06:01.888Z,1012.2
2022-08-22T02:07:01.907Z,1012.2
2022-08-22T02:08:02.802Z,1012.2
2022-08-22T02:09:02.660Z,1012.2
2022-08-22T02:10:02.630Z,1012.2
2022-08-22T02:11:02.554Z,1012.2
2022-08-22T02:12:22.040Z,1012.3
2022-08-22T02:13:01.988Z,1012.3
2022-08-22T02:14:01.938Z,1012.2
2022-08-22T02:15:02.872Z,1012.2
2022-08-22T02:16:01.848Z,1012.2
2022-08-22T02:17:02.887Z,1012.2
2022-08-22T02:18:02.700Z,1012.3
2022-08-22T02:19:02.665Z,1012.3
2022-08-22T02:20:02.466Z,1012.3
2022-08-22T02:21:02.455Z,1012.3
2022-08-22T02:22:02.375Z,1012.2
2022-08-22T02:23:02.186Z,1012.3
2022-08-22T02:24:02.142Z,1012.3
2022-08-22T02:25:01.970Z,1012.3
2022-08-22T02:26:01.923Z,1012.2
2022-08-22T02:27:02.846Z,1012.2
2022-08-22T02:28:02.674Z,1012.2
2022-08-22T02:29:02.627Z,1012.2
2022-08-22T02:30:04.190Z,1012.2
2022-08-22T02:31:02.702Z,1012.2
2022-08-22T02:32:02.624Z,1012.2
2022-08-22T02:33:02.542Z,1012.2
2022-08-22T02:34:02.375Z,1012.2
2022-08-22T02:35:02.328Z,1012.2
2022-08-22T02:36:02.169Z,1012.2
2022-08-22T02:37:02.109Z,1012.3
2022-08-22T02:38:01.893Z,1012.3
2022-08-22T02:39:02.872Z,1012.3
2022-08-22T02:40:03.007Z,1012.3
2022-08-22T02:41:01.935Z,1012.3
2022-08-22T02:42:02.873Z,1012.3
2022-08-22T02:43:02.690Z,1012.2
2022-08-22T02:44:02.656Z,1012.3
2022-08-22T02:45:02.458Z,1012.2
2022-08-22T02:46:01.799Z,1012.2
2022-08-22T02:47:03.286Z,1012.2
2022-08-22T02:48:02.063Z,1012.2
2022-08-22T02:49:02.000Z,1012.2
2022-08-22T02:50:02.300Z,1012.2
2022-08-22T02:51:02.299Z,1012.2
2022-08-22T02:52:02.281Z,1012.2
2022-08-22T02:53:02.113Z,1012.2
2022-08-22T02:54:02.106Z,1012.2
2022-08-22T02:55:01.892Z,1012.2
2022-08-22T02:56:01.870Z,1012.2
2022-08-22T02:57:02.831Z,1012.2
2022-08-22T02:58:02.645Z,1012.1
2022-08-22T02:59:02.627Z,1012.2
2022-08-22T03:00:02.548Z,1012.2
2022-08-22T03:01:02.502Z,1012.3
2022-08-22T03:02:02.447Z,1012.2
2022-08-22T03:03:02.381Z,1012.2
2022-08-22T03:04:02.158Z,1012.2
2022-08-22T03:05:02.138Z,1012.2
2022-08-22T03:06:02.755Z,1012.2
2022-08-22T03:07:02.615Z,1012.2
2022-08-22T03:08:02.487Z,1012.2
2022-08-22T03:09:02.485Z,1012.3
2022-08-22T03:10:02.369Z,1012.2
2022-08-22T03:11:02.385Z,1012.2
2022-08-22T03:12:02.279Z,1012.2
2022-08-22T03:13:02.126Z,1012.2
2022-08-22T03:14:02.015Z,1012.2
2022-08-22T03:15:01.824Z,1012.2
2022-08-22T03:16:02.128Z,1012.2
2022-08-22T03:17:02.048Z,1012.1
2022-08-22T03:18:01.866Z,1012.2
2022-08-22T03:19:02.855Z,1012.2
2022-08-22T03:20:02.684Z,1012.2
2022-08-22T03:21:02.708Z,1012.2
2022-08-22T03:22:02.543Z,1012.2
2022-08-22T03:23:02.505Z,1012.2
2022-08-22T03:24:02.445Z,1012.2
2022-08-22T03:25:02.287Z,1012.2
2022-08-22T03:26:08.211Z,1012.3
2022-08-22T03:27:02.038Z,1012.2
2022-08-22T03:28:02.985Z,1012.2
2022-08-22T03:29:01.863Z,1012.3
2022-08-22T03:30:02.894Z,1012.3
2022-08-22T03:31:02.052Z,1012.3
2022-08-22T03:32:02.019Z,1012.3
2022-08-22T03:33:01.848Z,1012.3
2022-08-22T03:34:02.819Z,1012.3
2022-08-22T03:35:02.651Z,1012.3
2022-08-22T03:36:02.621Z,1012.3
2022-08-22T03:37:02.560Z,1012.3
2022-08-22T03:38:02.404Z,1012.3
2022-08-22T03:39:12.317Z,1012.3
2022-08-22T03:40:02.983Z,1012.3
2022-08-22T03:41:01.844Z,1012.3
2022-08-22T03:42:02.841Z,1012.3
2022-08-22T03:43:02.661Z,1012.3
2022-08-22T03:44:02.569Z,1012.2
2022-08-22T03:45:02.494Z,1012.3
2022-08-22T03:46:02.514Z,1012.3
2022-08-22T03:47:02.474Z,1012.3
2022-08-22T03:48:02.415Z,1012.2
2022-08-22T03:49:02.241Z,1012.2
2022-08-22T03:50:02.216Z,1012.3
2022-08-22T03:51:02.018Z,1012.3
2022-08-22T03:52:02.136Z,1012.2
2022-08-22T03:53:01.904Z,1012.3
2022-08-22T03:54:01.933Z,1012.2
2022-08-22T03:55:02.842Z,1012.2
2022-08-22T03:56:02.662Z,1012.2
2022-08-22T03:57:02.630Z,1012.2
2022-08-22T03:58:02.559Z,1012.2
2022-08-22T03:59:11.337Z,1012.3
2022-08-22T04:00:02.670Z,1012.2
2022-08-22T04:01:02.122Z,1012.2
2022-08-22T04:02:02.194Z,1012.2
2022-08-22T04:03:01.981Z,1012.2
2022-08-22T04:04:01.951Z,1012.2
2022-08-22T04:05:02.895Z,1012.2
2022-08-22T04:06:02.732Z,1012.1
2022-08-22T04:07:31.847Z,1012.1
2022-08-22T04:08:02.718Z,1012.1
2022-08-22T04:09:02.615Z,1012.2
2022-08-22T04:10:02.085Z,1012.1
2022-08-22T04:11:03.809Z,1012.2
2022-08-22T04:12:02.688Z,1012.1
2022-08-22T04:13:02.535Z,1012.2
2022-08-22T04:14:02.451Z,1012.1
2022-08-22T04:15:02.360Z,1012.2
2022-08-22T04:16:02.479Z,1012.2
2022-08-22T04:17:02.414Z,1012.2
2022-08-22T04:18:02.370Z,1012.3
2022-08-22T04:19:02.187Z,1012.2
2022-08-22T04:20:02.194Z,1012.2
2022-08-22T04:21:02.012Z,1012.2
2022-08-22T04:22:02.067Z,1012.2
2022-08-22T04:23:01.859Z,1012.3
2022-08-22T04:24:02.843Z,1012.3
2022-08-22T04:25:08.619Z,1012.3
2022-08-22T04:26:13.031Z,1012.3
2022-08-22T04:27:01.876Z,1012.3
2022-08-22T04:28:02.875Z,1012.3
2022-08-22T04:29:02.696Z,1012.3
2022-08-22T04:30:02.704Z,1012.3
2022-08-22T04:31:01.970Z,1012.3
2022-08-22T04:32:01.979Z,1012.3
2022-08-22T04:33:01.813Z,1012.3
2022-08-22T04:34:02.857Z,1012.3
2022-08-22T04:35:02.690Z,1012.3
2022-08-22T04:36:02.683Z,1012.3
2022-08-22T04:37:02.505Z,1012.3
2022-08-22T04:38:02.446Z,1012.3
2022-08-22T04:39:02.374Z,1012.3
2022-08-22T04:40:02.536Z,1012.4
2022-08-22T04:41:05.193Z,1012.3
2022-08-22T04:42:33.729Z,1012.4
2022-08-22T04:43:04.307Z,1012.4
2022-08-22T04:44:02.232Z,1012.4
2022-08-22T04:45:02.039Z,1012.4
2022-08-22T04:46:02.462Z,1012.5
2022-08-22T04:47:02.426Z,1012.4
2022-08-22T04:48:02.403Z,1012.5
2022-08-22T04:49:02.691Z,1012.5
2022-08-22T04:50:02.802Z,1012.5
2022-08-22T04:51:02.733Z,1012.5
2022-08-22T04:52:02.554Z,1012.5
2022-08-22T04:53:02.536Z,1012.5
2022-08-22T04:54:02.363Z,1012.6
2022-08-22T04:55:02.335Z,1012.6
2022-08-22T04:56:08.181Z,1012.5
2022-08-22T04:57:01.980Z,1012.6
2022-08-22T04:58:06.809Z,1012.5
2022-08-22T04:59:03.599Z,1012.6
2022-08-22T05:00:02.444Z,1012.6
2022-08-22T05:01:02.709Z,1012.6
2022-08-22T05:02:02.905Z,1012.6
2022-08-22T05:03:02.750Z,1012.6
2022-08-22T05:04:02.689Z,1012.6
2022-08-22T05:05:02.550Z,1012.6
2022-08-22T05:06:02.487Z,1012.7
2022-08-22T05:07:02.423Z,1012.6
2022-08-22T05:08:02.700Z,1012.6
2022-08-22T05:09:02.861Z,1012.7
2022-08-22T05:10:12.971Z,1012.7
2022-08-22T05:11:01.792Z,1012.7
2022-08-22T05:12:02.759Z,1012.7
2022-08-22T05:13:02.572Z,1012.7
2022-08-22T05:14:02.591Z,1012.8
2022-08-22T05:15:03.140Z,1012.7
2022-08-22T05:16:04.745Z,1012.7
2022-08-22T05:17:02.559Z,1012.7
2022-08-22T05:18:02.546Z,1012.7
2022-08-22T05:19:02.542Z,1012.8
2022-08-22T05:20:02.379Z,1012.7
2022-08-22T05:21:02.787Z,1012.8
2022-08-22T05:22:02.721Z,1012.8
2022-08-22T05:23:17.850Z,1012.8
2022-08-22T05:24:01.791Z,1012.8
2022-08-22T05:25:02.760Z,1012.8
2022-08-22T05:26:02.581Z,1012.9
2022-08-22T05:27:02.581Z,1012.9
2022-08-22T05:28:02.492Z,1012.9
2022-08-22T05:29:02.328Z,1012.9
2022-08-22T05:30:02.290Z,1013
2022-08-22T05:31:02.382Z,1013
2022-08-22T05:32:02.205Z,1012.9
2022-08-22T05:33:02.127Z,1012.9
2022-08-22T05:34:01.904Z,1012.9
2022-08-22T05:35:02.883Z,1012.9
2022-08-22T05:36:02.689Z,1012.9
2022-08-22T05:37:02.636Z,1012.9
2022-08-22T05:38:02.569Z,1012.9
2022-08-22T05:39:02.398Z,1012.9
2022-08-22T05:40:02.570Z,1013
2022-08-22T05:41:02.541Z,1013
2022-08-22T05:42:02.418Z,1013
2022-08-22T05:43:02.355Z,1013.1
2022-08-22T05:44:02.475Z,1013
2022-08-22T05:45:02.264Z,1013
2022-08-22T05:46:02.500Z,1013
2022-08-22T05:47:02.540Z,1013.1
2022-08-22T05:48:02.459Z,1013.1
2022-08-22T05:49:02.253Z,1013.1
2022-08-22T05:50:02.236Z,1013.1
2022-08-22T05:51:02.017Z,1013.1
2022-08-22T05:52:01.988Z,1013.1
2022-08-22T05:53:01.796Z,1013.1
2022-08-22T05:54:02.720Z,1013.1
2022-08-22T05:55:02.560Z,1013.2
2022-08-22T05:56:02.512Z,1013.1
2022-08-22T05:57:08.342Z,1013.1
2022-08-22T05:58:02.218Z,1013.1
2022-08-22T05:59:02.179Z,1013.1
2022-08-22T06:00:01.986Z,1013.2
2022-08-22T06:01:02.157Z,1013.1
2022-08-22T06:02:02.441Z,1013.1
2022-08-22T06:03:02.408Z,1013.2
2022-08-22T06:04:02.255Z,1013.2
2022-08-22T06:05:02.211Z,1013.2
2022-08-22T06:06:02.007Z,1013.2
2022-08-22T06:07:01.977Z,1013.1
2022-08-22T06:08:01.962Z,1013.2
2022-08-22T06:09:01.889Z,1013.2
2022-08-22T06:10:02.803Z,1013.2
2022-08-22T06:11:02.618Z,1013.2
2022-08-22T06:12:02.593Z,1013.2
2022-08-22T06:13:02.795Z,1013.2
2022-08-22T06:14:04.225Z,1013.2
2022-08-22T06:15:02.061Z,1013.1
2022-08-22T06:16:02.475Z,1013.2
2022-08-22T06:17:02.395Z,1013.1
2022-08-22T06:18:02.339Z,1013.2
2022-08-22T06:19:02.132Z,1013.2
2022-08-22T06:20:02.040Z,1013.2
2022-08-22T06:21:01.877Z,1013.2
2022-08-22T06:22:02.818Z,1013.2
2022-08-22T06:23:02.649Z,1013.3
2022-08-22T06:24:02.589Z,1013.2
2022-08-22T06:25:02.502Z,1013.2
2022-08-22T06:26:02.356Z,1013.2
2022-08-22T06:27:02.295Z,1013.3
2022-08-22T06:28:02.077Z,1013.2
2022-08-22T06:29:02.035Z,1013.3
2022-08-22T06:30:04.433Z,1013.2
2022-08-22T06:31:01.958Z,1013.3
2022-08-22T06:32:01.924Z,1013.3
2022-08-22T06:33:02.848Z,1013.3
2022-08-22T06:34:02.151Z,1013.3
2022-08-22T06:35:02.420Z,1013.3
2022-08-22T06:36:02.062Z,1013.3
2022-08-22T06:37:02.036Z,1013.3
2022-08-22T06:38:01.893Z,1013.3
2022-08-22T06:39:01.928Z,1013.3
2022-08-22T06:40:03.166Z,1013.4
2022-08-22T06:41:02.006Z,1013.3
2022-08-22T06:42:02.070Z,1013.3
2022-08-22T06:43:01.895Z,1013.3
2022-08-22T06:44:02.876Z,1013.3
2022-08-22T06:45:02.693Z,1013.3
2022-08-22T06:46:02.135Z,1013.3
2022-08-22T06:47:02.198Z,1013.3
2022-08-22T06:48:02.959Z,1013.3
2022-08-22T06:49:01.919Z,1013.3
2022-08-22T06:50:01.960Z,1013.3
2022-08-22T06:51:01.814Z,1013.3
2022-08-22T06:52:02.810Z,1013.3
2022-08-22T06:53:02.655Z,1013.4
2022-08-22T06:54:02.622Z,1013.3
2022-08-22T06:55:02.584Z,1013.3
2022-08-22T06:56:02.410Z,1013.3
2022-08-22T06:57:02.399Z,1013.3
2022-08-22T06:58:03.363Z,1013.3
2022-08-22T06:59:02.216Z,1013.3
2022-08-22T07:00:02.185Z,1013.4
2022-08-22T07:01:13.069Z,1013.3
2022-08-22T07:02:02.012Z,1013.4
2022-08-22T07:03:01.949Z,1013.4
2022-08-22T07:04:02.899Z,1013.4
2022-08-22T07:05:02.758Z,1013.4
2022-08-22T07:06:02.756Z,1013.4
2022-08-22T07:07:02.607Z,1013.4
2022-08-22T07:08:02.573Z,1013.4
2022-08-22T07:09:07.719Z,1013.4
2022-08-22T07:10:02.565Z,1013.4
2022-08-22T07:11:02.540Z,1013.5
2022-08-22T07:12:02.560Z,1013.4
2022-08-22T07:13:02.388Z,1013.4
2022-08-22T07:14:02.420Z,1013.4
2022-08-22T07:15:02.366Z,1013.4
2022-08-22T07:16:02.473Z,1013.5
2022-08-22T07:17:04.807Z,1013.4
2022-08-22T07:18:02.757Z,1013.5
2022-08-22T07:19:02.604Z,1013.5
2022-08-22T07:20:02.559Z,1013.5
2022-08-22T07:21:03.020Z,1013.4
2022-08-22T07:22:01.858Z,1013.4
2022-08-22T07:23:02.865Z,1013.4
2022-08-22T07:24:02.637Z,1013.5
2022-08-22T07:25:02.673Z,1013.5
2022-08-22T07:26:02.491Z,1013.5
2022-08-22T07:27:05.734Z,1013.5
2022-08-22T07:28:04.498Z,1013.5
2022-08-22T07:29:10.377Z,1013.5
2022-08-22T07:30:04.271Z,1013.5
2022-08-22T07:31:03.396Z,1013.5
2022-08-22T07:32:02.330Z,1013.5
2022-08-22T07:33:27.602Z,1013.5
2022-08-22T07:34:02.421Z,1013.5
2022-08-22T07:35:02.420Z,1013.5
2022-08-22T07:36:02.404Z,1013.5
2022-08-22T07:37:02.238Z,1013.5
2022-08-22T07:38:02.279Z,1013.5
2022-08-22T07:39:02.546Z,1013.6
2022-08-22T07:40:02.580Z,1013.5
2022-08-22T07:41:02.590Z,1013.5
2022-08-22T07:42:02.546Z,1013.6
2022-08-22T07:43:02.357Z,1013.6
2022-08-22T07:44:02.426Z,1013.5
2022-08-22T07:45:02.348Z,1013.5
2022-08-22T07:46:02.738Z,1013.5
2022-08-22T07:47:02.851Z,1013.5
2022-08-22T07:48:03.336Z,1013.4
2022-08-22T07:49:10.629Z,1013.4
2022-08-22T07:50:02.487Z,1013.5
2022-08-22T07:51:02.439Z,1013.6
2022-08-22T07:52:02.379Z,1013.5
2022-08-22T07:53:02.203Z,1013.5
2022-08-22T07:54:02.187Z,1013.4
2022-08-22T07:55:02.048Z,1013.5
2022-08-22T07:56:02.037Z,1013.4
2022-08-22T07:57:01.839Z,1013.4
2022-08-22T07:58:04.680Z,1013.4
2022-08-22T07:59:10.019Z,1013.4
2022-08-22T08:00:02.047Z,1013.4
2022-08-22T08:01:02.618Z,1013.4
2022-08-22T08:02:02.600Z,1013.4
2022-08-22T08:03:02.563Z,1013.4
2022-08-22T08:04:02.388Z,1013.4
2022-08-22T08:05:02.401Z,1013.4
2022-08-22T08:06:02.350Z,1013.4
2022-08-22T08:07:02.229Z,1013.4
2022-08-22T08:08:02.178Z,1013.5
2022-08-22T08:09:01.968Z,1013.4
2022-08-22T08:10:01.977Z,1013.5
2022-08-22T08:11:02.143Z,1013.5
2022-08-22T08:12:02.131Z,1013.5
2022-08-22T08:13:03.373Z,1013.5
2022-08-22T08:14:02.243Z,1013.5
2022-08-22T08:15:02.230Z,1013.5
2022-08-22T08:16:02.556Z,1013.5
2022-08-22T08:17:02.417Z,1013.5
2022-08-22T08:18:02.384Z,1013.5
2022-08-22T08:19:02.340Z,1013.5
2022-08-22T08:20:02.166Z,1013.4
2022-08-22T08:21:02.922Z,1013.5
2022-08-22T08:22:02.844Z,1013.5
2022-08-22T08:23:02.728Z,1013.5
2022-08-22T08:24:02.897Z,1013.5
2022-08-22T08:25:01.861Z,1013.6
2022-08-22T08:26:02.826Z,1013.5
2022-08-22T08:27:02.686Z,1013.6
2022-08-22T08:28:03.052Z,1013.5
2022-08-22T08:29:01.900Z,1013.6
2022-08-22T08:30:02.859Z,1013.5
2022-08-22T08:31:01.938Z,1013.5
2022-08-22T08:32:01.936Z,1013.5
2022-08-22T08:33:27.105Z,1013.6
2022-08-22T08:34:01.903Z,1013.5
2022-08-22T08:35:04.152Z,1013.5
2022-08-22T08:36:04.302Z,1013.5
2022-08-22T08:37:02.138Z,1013.5
2022-08-22T08:38:02.161Z,1013.6
2022-08-22T08:39:01.942Z,1013.6
2022-08-22T08:40:02.182Z,1013.5
2022-08-22T08:41:02.151Z,1013.5
2022-08-22T08:42:01.999Z,1013.5
2022-08-22T08:43:01.847Z,1013.5
2022-08-22T08:44:02.830Z,1013.6
2022-08-22T08:45:02.697Z,1013.6
2022-08-22T08:46:02.846Z,1013.6
2022-08-22T08:47:02.790Z,1013.5
2022-08-22T08:48:04.652Z,1013.6
2022-08-22T08:49:06.966Z,1013.5
2022-08-22T08:50:01.812Z,1013.5
2022-08-22T08:51:02.835Z,1013.4
2022-08-22T08:52:02.786Z,1013.5
2022-08-22T08:53:02.634Z,1013.5
2022-08-22T08:54:02.497Z,1013.4
2022-08-22T08:55:22.957Z,1013.5
2022-08-22T08:56:01.795Z,1013.5
2022-08-22T08:57:02.845Z,1013.5
2022-08-22T08:58:10.471Z,1013.5
2022-08-22T08:59:02.622Z,1013.5
2022-08-22T09:00:02.536Z,1013.5
2022-08-22T09:01:03.619Z,1013.5
2022-08-22T09:02:01.796Z,1013.5
2022-08-22T09:04:04.427Z,1013.5
2022-08-22T09:05:02.234Z,1013.4
2022-08-22T09:06:02.196Z,1013.5
2022-08-22T09:07:04.657Z,1013.5
2022-08-22T09:08:05.790Z,1013.4
2022-08-22T09:09:02.816Z,1013.4
2022-08-22T09:10:02.749Z,1013.5
2022-08-22T09:11:02.560Z,1013.5
2022-08-22T09:12:02.641Z,1013.5
2022-08-22T09:13:13.254Z,1013.5
2022-08-22T09:14:02.222Z,1013.4
2022-08-22T09:15:02.268Z,1013.5
2022-08-22T09:16:05.834Z,1013.5
2022-08-22T09:17:02.685Z,1013.5
2022-08-22T09:18:04.744Z,1013.4
2022-08-22T09:19:02.094Z,1013.4
2022-08-22T09:20:19.380Z,1013.4
2022-08-22T09:21:03.103Z,1013.4
2022-08-22T09:22:01.894Z,1013.5
2022-08-22T09:23:04.066Z,1013.5
2022-08-22T09:24:01.950Z,1013.5
2022-08-22T09:25:06.834Z,1013.5
2022-08-22T09:26:06.312Z,1013.5
2022-08-22T09:27:02.175Z,1013.5
2022-08-22T09:29:01.835Z,1013.5
2022-08-22T09:30:05.145Z,1013.5
2022-08-22T09:31:23.251Z,1013.5
2022-08-22T09:32:02.239Z,1013.5
2022-08-22T09:33:02.205Z,1013.5
2022-08-22T09:34:05.873Z,1013.5
2022-08-22T09:35:02.696Z,1013.5
2022-08-22T09:36:05.880Z,1013.4
2022-08-22T09:37:03.329Z,1013.5
2022-08-22T09:38:02.338Z,1013.5
2022-08-22T09:39:02.502Z,1013.5
2022-08-22T09:40:02.916Z,1013.5
2022-08-22T09:40:23.322Z,1013.6
2022-08-22T09:40:28.434Z,1013.4
2022-08-22T09:41:02.812Z,1013.5
2022-08-22T09:42:03.391Z,1013.6
2022-08-22T09:43:03.639Z,1013.6
2022-08-22T09:44:03.345Z,1013.6
2022-08-22T09:45:03.487Z,1013.6
2022-08-22T09:46:02.781Z,1013.6
2022-08-22T09:47:02.891Z,1013.6
2022-08-22T09:48:08.879Z,1013.5
2022-08-22T09:49:06.903Z,1013.6
2022-08-22T09:50:03.891Z,1013.6
2022-08-22T09:51:33.590Z,1013.5
2022-08-22T09:52:32.056Z,1013.5
2022-08-22T09:53:02.629Z,1013.5
2022-08-22T09:54:04.669Z,1013.5
2022-08-22T09:55:02.600Z,1013.5
2022-08-22T09:56:16.248Z,1013.6
2022-08-22T09:57:02.075Z,1013.5
2022-08-22T09:58:04.115Z,1013.5
2022-08-22T09:59:01.956Z,1013.5
2022-08-22T10:00:02.817Z,1013.6
2022-08-22T10:01:03.069Z,1013.5
2022-08-22T10:02:01.890Z,1013.6
2022-08-22T10:03:03.468Z,1013.6
2022-08-22T10:04:01.963Z,1013.6
2022-08-22T10:05:06.529Z,1013.6
2022-08-22T10:06:05.774Z,1013.6
2022-08-22T10:07:03.215Z,1013.6
2022-08-22T10:08:05.492Z,1013.6
2022-08-22T10:09:02.126Z,1013.6
2022-08-22T10:10:02.124Z,1013.6
2022-08-22T10:11:01.959Z,1013.6
2022-08-22T10:12:01.992Z,1013.5
2022-08-22T10:13:03.083Z,1013.6
2022-08-22T10:14:02.487Z,1013.6
2022-08-22T10:15:02.618Z,1013.5
2022-08-22T10:16:02.790Z,1013.6
2022-08-22T10:17:02.595Z,1013.6
2022-08-22T10:18:04.285Z,1013.6
2022-08-22T10:19:05.732Z,1013.6
2022-08-22T10:20:02.542Z,1013.6
2022-08-22T10:21:02.515Z,1013.6
2022-08-22T10:22:02.497Z,1013.6
2022-08-22T10:23:03.624Z,1013.5
2022-08-22T10:24:07.772Z,1013.6
2022-08-22T10:25:05.147Z,1013.7
2022-08-22T10:26:03.103Z,1013.7
2022-08-22T10:27:02.104Z,1013.7
2022-08-22T10:28:02.005Z,1013.8
2022-08-22T10:29:01.825Z,1013.7
2022-08-22T10:30:02.830Z,1013.8
2022-08-22T10:31:02.390Z,1013.8
2022-08-22T10:32:15.018Z,1013.7
2022-08-22T10:33:05.736Z,1013.7
2022-08-22T10:34:03.851Z,1013.7
2022-08-22T10:35:08.242Z,1013.8
2022-08-22T10:36:05.722Z,1013.7
2022-08-22T10:37:03.193Z,1013.7
2022-08-22T10:38:04.342Z,1013.7
2022-08-22T10:39:12.305Z,1013.8
2022-08-22T10:40:03.161Z,1013.8
2022-08-22T10:41:02.326Z,1013.8
2022-08-22T10:42:03.774Z,1013.8
2022-08-22T10:43:02.595Z,1013.7
2022-08-22T10:44:04.974Z,1013.8
2022-08-22T10:45:01.813Z,1013.8
2022-08-22T10:46:03.965Z,1013.8
2022-08-22T10:47:03.723Z,1013.8
2022-08-22T10:48:02.079Z,1013.7
2022-08-22T10:49:08.702Z,1013.7
2022-08-22T10:50:02.044Z,1013.7
2022-08-22T10:51:02.588Z,1013.8
2022-08-22T10:52:16.628Z,1013.7
2022-08-22T10:53:02.389Z,1013.7
2022-08-22T10:54:02.444Z,1013.7
2022-08-22T10:55:10.480Z,1013.7
2022-08-22T10:56:02.303Z,1013.7
2022-08-22T10:57:06.924Z,1013.7
2022-08-22T10:58:04.506Z,1013.6
2022-08-22T10:59:04.469Z,1013.6
2022-08-22T11:00:03.499Z,1013.6
2022-08-22T11:01:42.447Z,1013.6
2022-08-22T11:02:03.340Z,1013.7
2022-08-22T11:03:03.182Z,1013.7
2022-08-22T11:04:02.107Z,1013.7
2022-08-22T11:05:03.287Z,1013.7
2022-08-22T11:06:02.090Z,1013.7
2022-08-22T11:07:02.014Z,1013.8
2022-08-22T11:08:01.808Z,1013.7
2022-08-22T11:09:02.807Z,1013.7
2022-08-22T11:10:02.645Z,1013.8
2022-08-22T11:11:04.298Z,1013.7
2022-08-22T11:12:04.721Z,1013.7
2022-08-22T11:13:02.538Z,1013.8
2022-08-22T11:14:02.656Z,1013.8
2022-08-22T11:15:04.123Z,1013.7
2022-08-22T11:16:05.086Z,1013.8
2022-08-22T11:17:35.678Z,1013.7
2022-08-22T11:18:02.423Z,1013.7
2022-08-22T11:19:16.178Z,1013.7
2022-08-22T11:20:03.410Z,1013.7
2022-08-22T11:21:02.240Z,1013.7
2022-08-22T11:22:05.212Z,1013.7
2022-08-22T11:23:03.060Z,1013.7
2022-08-22T11:24:02.225Z,1013.8
2022-08-22T11:25:05.428Z,1013.7
2022-08-22T11:26:05.832Z,1013.7
2022-08-22T11:27:13.240Z,1013.7
2022-08-22T11:28:04.629Z,1013.7
2022-08-22T11:29:14.831Z,1013.6
2022-08-22T11:30:02.945Z,1013.6
2022-08-22T11:31:02.841Z,1013.7
2022-08-22T11:32:09.639Z,1013.7
2022-08-22T11:33:03.523Z,1013.7
2022-08-22T11:34:02.745Z,1013.7
2022-08-22T11:35:03.067Z,1013.7
2022-08-22T11:36:05.276Z,1013.7
2022-08-22T11:37:02.072Z,1013.7
2022-08-22T11:38:03.658Z,1013.7
2022-08-22T11:39:02.659Z,1013.7
2022-08-22T11:40:02.781Z,1013.8
2022-08-22T11:41:02.023Z,1013.8
2022-08-22T11:42:02.123Z,1013.7
2022-08-22T11:43:04.543Z,1013.8
2022-08-22T11:44:04.181Z,1013.8
2022-08-22T11:45:02.115Z,1013.7
2022-08-22T11:46:05.368Z,1013.8
2022-08-22T11:47:02.374Z,1013.7
2022-08-22T11:48:02.169Z,1013.7
2022-08-22T11:49:02.104Z,1013.7
2022-08-22T11:50:01.835Z,1013.7
2022-08-22T11:51:13.989Z,1013.7
2022-08-22T11:52:02.326Z,1013.7
2022-08-22T11:53:08.388Z,1013.7
2022-08-22T11:54:02.388Z,1013.7
2022-08-22T11:55:02.273Z,1013.7
2022-08-22T11:56:06.163Z,1013.6
2022-08-22T11:57:02.936Z,1013.7
2022-08-22T11:58:02.080Z,1013.6
2022-08-22T11:59:02.042Z,1013.7
2022-08-22T12:00:01.916Z,1013.7
2022-08-22T12:01:02.539Z,1013.6
2022-08-22T12:02:04.673Z,1013.6
2022-08-22T12:03:02.549Z,1013.7
2022-08-22T12:04:03.957Z,1013.6
2022-08-22T12:05:02.859Z,1013.6
2022-08-22T12:06:02.670Z,1013.6
2022-08-22T12:07:02.083Z,1013.6
2022-08-22T12:08:03.545Z,1013.6
2022-08-22T12:09:03.045Z,1013.5
2022-08-22T12:10:01.964Z,1013.6
2022-08-22T12:11:03.947Z,1013.5
2022-08-22T12:12:05.209Z,1013.5
2022-08-22T12:13:02.360Z,1013.5
2022-08-22T12:14:07.076Z,1013.6
2022-08-22T12:15:03.551Z,1013.6
2022-08-22T12:16:03.329Z,1013.6
2022-08-22T12:17:02.244Z,1013.6
2022-08-22T12:18:02.828Z,1013.7
2022-08-22T12:19:03.378Z,1013.6
2022-08-22T12:20:18.677Z,1013.6
2022-08-22T12:21:03.809Z,1013.6
2022-08-22T12:22:03.837Z,1013.6
2022-08-22T12:23:04.582Z,1013.6
2022-08-22T12:24:20.891Z,1013.6
2022-08-22T12:25:03.682Z,1013.4
2022-08-22T12:26:11.242Z,1013.5
2022-08-22T12:27:08.420Z,1013.5
2022-08-22T12:28:03.577Z,1013.5
2022-08-22T12:29:02.500Z,1013.4